| time (UTC) | temp C | wind direction | speed KPH | gust KPH | rain 1hr cm | rain 24hr cm | rain mn cm | humidity % | barometer mb |
| 20260507031052 | 11 | 0 | 0.0 | 3.2 | 0.05 | 0.91 | 0.91 | 96 | 1006.9 |
| 20260507030549 | 11 | 150 | 0.0 | 3.2 | 0.03 | 0.89 | 0.89 | 96 | 1006.9 |
| 20260507030057 | 11 | 0 | 0.0 | 4.8 | 0.03 | 0.89 | 0.89 | 96 | 1006.8 |
| 20260507025548 | 11 | 0 | 0.0 | 4.8 | 0.03 | 0.89 | 0.89 | 96 | 1006.6 |
| 20260507025048 | 11 | 127 | 0.0 | 9.7 | 0.03 | 0.89 | 0.89 | 96 | 1006.5 |
| 20260507024555 | 11 | 120 | 1.6 | 9.7 | 0.03 | 0.89 | 0.89 | 95 | 1006.5 |
| 20260507024048 | 12 | 129 | 1.6 | 9.7 | 0.03 | 0.89 | 0.89 | 96 | 1006.6 |
| 20260507023552 | 12 | 128 | 0.0 | 4.8 | 0.03 | 0.89 | 0.89 | 96 | 1006.7 |
| 20260507023054 | 12 | 0 | 0.0 | 8.0 | 0.03 | 0.89 | 0.89 | 96 | 1006.5 |
| 20260507022548 | 12 | 89 | 1.6 | 8.0 | 0.03 | 0.89 | 0.89 | 96 | 1006.7 |
| 20260507022048 | 12 | 134 | 1.6 | 6.4 | 0.03 | 0.89 | 0.89 | 96 | 1006.6 |
| 20260507021555 | 12 | 0 | 0.0 | 8.0 | 0.03 | 0.89 | 0.89 | 96 | 1006.8 |
| 20260507021048 | 13 | 0 | 1.6 | 12.9 | 0.00 | 0.86 | 0.86 | 96 | 1006.6 |
| 20260507020549 | 13 | 0 | 0.0 | 12.9 | 0.00 | 0.86 | 0.86 | 96 | 1006.6 |
| 20260507020104 | 13 | 124 | 3.2 | 12.9 | 0.00 | 0.86 | 0.86 | 96 | 1006.6 |
| 20260507015547 | 13 | 0 | 1.6 | 8.0 | 0.00 | 0.86 | 0.86 | 96 | 1006.4 |
| 20260507015048 | 13 | 120 | 1.6 | 8.0 | 0.00 | 0.86 | 0.86 | 97 | 1006.4 |
| 20260507014606 | 13 | 147 | 0.0 | 6.4 | 0.00 | 0.86 | 0.86 | 97 | 1006.0 |
| 20260507014048 | 13 | 117 | 0.0 | 6.4 | 0.00 | 0.86 | 0.86 | 97 | 1006.0 |
| 20260507013547 | 13 | 137 | 0.0 | 8.0 | 0.00 | 0.86 | 0.86 | 97 | 1006.3 |
| 20260507013053 | 13 | 0 | 1.6 | 8.0 | 0.00 | 0.86 | 0.86 | 97 | 1006.2 |
| 20260507012547 | 13 | 115 | 1.6 | 6.4 | 0.00 | 0.86 | 0.86 | 97 | 1006.0 |
| 20260507012048 | 13 | 90 | 1.6 | 9.7 | 0.00 | 0.86 | 0.86 | 97 | 1006.0 |
| 20260507011601 | 13 | 83 | 1.6 | 9.7 | 0.00 | 0.86 | 0.86 | 97 | 1006.0 |
| 20260507011049 | 13 | 0 | 0.0 | 12.9 | 0.00 | 0.86 | 0.86 | 97 | 1006.0 |
| 20260507010548 | 13 | 160 | 0.0 | 12.9 | 0.00 | 0.86 | 0.86 | 97 | 1006.1 |
| 20260507010055 | 13 | 117 | 0.0 | 4.8 | 0.00 | 0.86 | 0.86 | 97 | 1006.0 |
| 20260507005548 | 13 | 0 | 0.0 | 11.3 | 0.03 | 0.86 | 0.86 | 97 | 1006.0 |
| 20260507005053 | 13 | 0 | 0.0 | 11.3 | 0.03 | 0.86 | 0.86 | 97 | 1006.1 |
| 20260507004553 | 13 | 0 | 0.0 | 8.0 | 0.03 | 0.86 | 0.86 | 97 | 1006.0 |
| 20260507004048 | 13 | 0 | 3.2 | 8.0 | 0.03 | 0.86 | 0.86 | 97 | 1006.0 |
| 20260507003549 | 13 | 265 | 1.6 | 8.0 | 0.03 | 0.86 | 0.86 | 97 | 1006.0 |
| 20260507003051 | 13 | 0 | 3.2 | 8.0 | 0.03 | 0.86 | 0.86 | 97 | 1005.8 |
| 20260507002548 | 13 | 349 | 1.6 | 9.7 | 0.03 | 0.86 | 0.86 | 97 | 1005.9 |
| 20260507002051 | 13 | 0 | 0.0 | 9.7 | 0.03 | 0.86 | 0.86 | 97 | 1005.8 |
| 20260507001607 | 13 | 129 | 3.2 | 9.7 | 0.03 | 0.86 | 0.86 | 97 | 1005.9 |
| 20260507001047 | 13 | 0 | 1.6 | 8.0 | 0.03 | 0.86 | 0.86 | 97 | 1005.8 |
| 20260507000549 | 13 | 115 | 3.2 | 8.0 | 0.03 | 0.86 | 0.86 | 97 | 1005.8 |
| 20260507000058 | 13 | 67 | 1.6 | 4.8 | 0.03 | 0.86 | 0.86 | 97 | 1005.8 |
| 20260506235548 | 13 | 0 | 0.0 | 8.0 | 0.00 | 0.84 | 0.84 | 97 | 1005.7 |
| 20260506235044 | 13 | 0 | 1.6 | 8.0 | 0.00 | 0.84 | 0.84 | 97 | 1005.8 |
| 20260506234554 | 13 | 129 | 0.0 | 3.2 | 0.00 | 0.84 | 0.84 | 97 | 1005.8 |
| 20260506234047 | 13 | 0 | 0.0 | 4.8 | 0.00 | 0.84 | 0.84 | 97 | 1005.8 |
| 20260506233549 | 13 | 188 | 0.0 | 9.7 | 0.03 | 0.84 | 0.84 | 96 | 1005.7 |
| 20260506233052 | 13 | 115 | 3.2 | 9.7 | 0.05 | 0.84 | 0.84 | 96 | 1005.6 |
| 20260506232553 | 13 | 0 | 0.0 | 6.4 | 0.08 | 0.84 | 0.84 | 96 | 1005.5 |
| 20260506232048 | 13 | 0 | 0.0 | 6.4 | 0.08 | 0.84 | 0.84 | 96 | 1005.5 |
| 20260506231551 | 13 | 0 | 1.6 | 6.4 | 0.10 | 0.84 | 0.84 | 96 | 1005.5 |
| 20260506231048 | 13 | 0 | 1.6 | 6.4 | 0.15 | 0.84 | 0.84 | 96 | 1005.7 |
| 20260506230556 | 13 | 145 | 0.0 | 6.4 | 0.15 | 0.84 | 0.84 | 96 | 1005.7 |
| 20260506230057 | 13 | 154 | 0.0 | 6.4 | 0.15 | 0.84 | 0.84 | 96 | 1005.7 |
| 20260506225550 | 13 | 345 | 0.0 | 8.0 | 0.15 | 0.84 | 0.84 | 96 | 1005.6 |
| 20260506225048 | 13 | 0 | 1.6 | 8.0 | 0.15 | 0.84 | 0.84 | 96 | 1005.7 |
| 20260506224600 | 13 | 153 | 1.6 | 8.0 | 0.15 | 0.84 | 0.84 | 96 | 1005.7 |
| 20260506224044 | 13 | 0 | 0.0 | 11.3 | 0.18 | 0.84 | 0.84 | 96 | 1005.8 |
| 20260506223548 | 13 | 75 | 0.0 | 11.3 | 0.15 | 0.81 | 0.81 | 96 | 1005.8 |
| 20260506223050 | 13 | 355 | 4.8 | 11.3 | 0.15 | 0.79 | 0.79 | 96 | 1005.9 |
| 20260506222548 | 13 | 269 | 0.0 | 6.4 | 0.13 | 0.76 | 0.76 | 96 | 1005.9 |
| 20260506222048 | 13 | 112 | 0.0 | 11.3 | 0.13 | 0.76 | 0.76 | 96 | 1005.8 |
| 20260506221553 | 13 | 334 | 4.8 | 12.9 | 0.10 | 0.74 | 0.74 | 96 | 1005.9 |
| 20260506221047 | 13 | 105 | 3.2 | 12.9 | 0.08 | 0.69 | 0.69 | 96 | 1005.7 |
| 20260506220547 | 13 | 149 | 1.6 | 11.3 | 0.10 | 0.69 | 0.69 | 96 | 1005.9 |
| 20260506220109 | 13 | 0 | 3.2 | 12.9 | 0.13 | 0.69 | 0.69 | 96 | 1006.0 |
| 20260506215548 | 13 | 0 | 0.0 | 16.1 | 0.15 | 0.69 | 0.69 | 96 | 1006.0 |
| 20260506215048 | 13 | 194 | 6.4 | 16.1 | 0.18 | 0.69 | 0.69 | 96 | 1005.9 |
| 20260506214558 | 13 | 137 | 1.6 | 11.3 | 0.18 | 0.69 | 0.69 | 96 | 1006.1 |
| 20260506214048 | 13 | 87 | 1.6 | 8.0 | 0.18 | 0.66 | 0.66 | 96 | 1006.0 |
| 20260506213547 | 13 | 153 | 0.0 | 9.7 | 0.20 | 0.66 | 0.66 | 96 | 1006.1 |
| 20260506213102 | 13 | 0 | 1.6 | 16.1 | 0.20 | 0.64 | 0.64 | 96 | 1006.0 |
| 20260506212548 | 13 | 0 | 1.6 | 16.1 | 0.23 | 0.64 | 0.64 | 96 | 1006.1 |
| 20260506212050 | 13 | 72 | 3.2 | 16.1 | 0.25 | 0.64 | 0.64 | 95 | 1006.0 |
| 20260506211554 | 13 | 56 | 1.6 | 14.5 | 0.28 | 0.64 | 0.64 | 95 | 1006.2 |
| 20260506211048 | 13 | 345 | 4.8 | 14.5 | 0.28 | 0.61 | 0.61 | 95 | 1006.1 |
| 20260506210548 | 13 | 197 | 0.0 | 14.5 | 0.28 | 0.58 | 0.58 | 95 | 1006.1 |
| 20260506210107 | 13 | 56 | 3.2 | 14.5 | 0.28 | 0.56 | 0.56 | 95 | 1006.2 |
| 20260506205544 | 13 | 133 | 3.2 | 12.9 | 0.25 | 0.53 | 0.53 | 95 | 1006.2 |
| 20260506205050 | 13 | 266 | 3.2 | 12.9 | 0.25 | 0.51 | 0.51 | 95 | 1006.3 |
| 20260506204600 | 13 | 0 | 1.6 | 12.9 | 0.25 | 0.51 | 0.51 | 95 | 1006.4 |
| 20260506204047 | 13 | 50 | 1.6 | 11.3 | 0.25 | 0.48 | 0.48 | 95 | 1006.3 |
| 20260506203547 | 14 | 105 | 1.6 | 11.3 | 0.25 | 0.46 | 0.46 | 95 | 1006.5 |
| 20260506203141 | 14 | 0 | 3.2 | 11.3 | 0.23 | 0.43 | 0.43 | 95 | 1006.6 |
| 20260506202550 | 14 | 0 | 3.2 | 20.9 | 0.20 | 0.41 | 0.41 | 95 | 1006.7 |
| 20260506202048 | 14 | 141 | 3.2 | 20.9 | 0.18 | 0.38 | 0.38 | 94 | 1006.7 |
| 20260506201555 | 14 | 164 | 4.8 | 20.9 | 0.15 | 0.36 | 0.36 | 94 | 1006.7 |
| 20260506201049 | 14 | 353 | 0.0 | 14.5 | 0.13 | 0.33 | 0.33 | 94 | 1006.7 |
| 20260506200548 | 14 | 141 | 4.8 | 14.5 | 0.10 | 0.30 | 0.30 | 94 | 1006.7 |
| 20260506200054 | 14 | 294 | 0.0 | 6.4 | 0.10 | 0.28 | 0.28 | 94 | 1006.7 |
| 20260506195548 | 14 | 65 | 1.6 | 8.0 | 0.10 | 0.28 | 0.28 | 94 | 1006.8 |
| 20260506195048 | 15 | 0 | 0.0 | 8.0 | 0.08 | 0.25 | 0.25 | 94 | 1006.8 |
| 20260506194554 | 15 | 78 | 1.6 | 8.0 | 0.10 | 0.25 | 0.25 | 93 | 1007.0 |
| 20260506194047 | 15 | 49 | 1.6 | 6.4 | 0.08 | 0.23 | 0.23 | 93 | 1007.1 |
| 20260506193547 | 15 | 121 | 0.0 | 6.4 | 0.05 | 0.20 | 0.20 | 94 | 1007.0 |
| 20260506193051 | 15 | 129 | 1.6 | 6.4 | 0.05 | 0.20 | 0.20 | 93 | 1007.0 |
| 20260506192549 | 15 | 0 | 1.6 | 6.4 | 0.05 | 0.20 | 0.20 | 93 | 1006.9 |
| 20260506192048 | 15 | 0 | 0.0 | 6.4 | 0.05 | 0.20 | 0.20 | 93 | 1007.1 |
| 20260506191554 | 15 | 0 | 0.0 | 12.9 | 0.08 | 0.20 | 0.20 | 93 | 1007.0 |
| 20260506191048 | 15 | 129 | 0.0 | 12.9 | 0.08 | 0.20 | 0.20 | 93 | 1007.0 |
| 20260506190548 | 15 | 0 | 3.2 | 12.9 | 0.10 | 0.20 | 0.20 | 93 | 1007.1 |
| 20260506190057 | 15 | 0 | 0.0 | 9.7 | 0.08 | 0.18 | 0.18 | 93 | 1007.0 |
| 20260506185548 | 15 | 341 | 1.6 | 9.7 | 0.10 | 0.18 | 0.18 | 93 | 1007.2 |
| 20260506185048 | 15 | 0 | 0.0 | 12.9 | 0.10 | 0.18 | 0.18 | 92 | 1006.8 |
| 20260506184600 | 15 | 131 | 3.2 | 12.9 | 0.10 | 0.15 | 0.15 | 92 | 1006.9 |
| 20260506184052 | 15 | 297 | 4.8 | 12.9 | 0.10 | 0.15 | 0.15 | 92 | 1006.9 |
| 20260506183548 | 15 | 292 | 3.2 | 9.7 | 0.13 | 0.15 | 0.15 | 91 | 1007.2 |
| 20260506183059 | 15 | 252 | 0.0 | 8.0 | 0.13 | 0.15 | 0.15 | 91 | 1007.2 |
| 20260506182548 | 15 | 10 | 1.6 | 8.0 | 0.15 | 0.15 | 0.15 | 91 | 1007.4 |
| 20260506182048 | 15 | 0 | 1.6 | 6.4 | 0.15 | 0.15 | 0.15 | 91 | 1007.3 |
| 20260506181600 | 15 | 305 | 0.0 | 8.0 | 0.13 | 0.13 | 0.13 | 91 | 1007.5 |
| 20260506181048 | 15 | 0 | 0.0 | 14.5 | 0.13 | 0.13 | 0.13 | 90 | 1007.6 |
| 20260506180548 | 15 | 155 | 1.6 | 14.5 | 0.10 | 0.10 | 0.10 | 90 | 1007.7 |
| 20260506180057 | 15 | 44 | 0.0 | 6.4 | 0.10 | 0.10 | 0.10 | 90 | 1007.8 |
| 20260506175548 | 15 | 123 | 0.0 | 8.0 | 0.08 | 0.08 | 0.08 | 89 | 1008.0 |
| 20260506175052 | 16 | 0 | 0.0 | 8.0 | 0.08 | 0.08 | 0.08 | 88 | 1008.1 |
| 20260506174608 | 16 | 122 | 1.6 | 8.0 | 0.05 | 0.05 | 0.05 | 86 | 1008.2 |
| 20260506174047 | 16 | 132 | 1.6 | 6.4 | 0.05 | 0.05 | 0.05 | 85 | 1008.1 |
| 20260506173545 | 17 | 153 | 0.0 | 8.0 | 0.03 | 0.03 | 0.03 | 82 | 1008.2 |
| 20260506173057 | 17 | 320 | 0.0 | 16.1 | 0.03 | 0.03 | 0.03 | 79 | 1008.1 |
| 20260506172544 | 18 | 113 | 4.8 | 16.1 | 0.00 | 0.00 | 0.00 | 76 | 1008.1 |
| 20260506172048 | 18 | 139 | 3.2 | 19.3 | 0.00 | 0.00 | 0.00 | 73 | 1008.0 |
| 20260506171605 | 18 | 91 | 3.2 | 19.3 | 0.00 | 0.00 | 0.00 | 72 | 1008.0 |
| 20260506171048 | 18 | 82 | 1.6 | 12.9 | 0.00 | 0.00 | 0.00 | 71 | 1007.9 |
| 20260506170548 | 18 | 90 | 4.8 | 12.9 | 0.00 | 0.00 | 0.00 | 71 | 1007.9 |
| 20260506170103 | 19 | 87 | 3.2 | 22.5 | 0.00 | 0.00 | 0.00 | 71 | 1008.0 |
| 20260506165548 | 19 | 274 | 4.8 | 22.5 | 0.00 | 0.00 | 0.00 | 70 | 1008.0 |
| 20260506165048 | 19 | 108 | 6.4 | 20.9 | 0.00 | 0.00 | 0.00 | 71 | 1008.0 |
| 20260506164558 | 19 | 50 | 6.4 | 22.5 | 0.00 | 0.00 | 0.00 | 70 | 1008.1 |
| 20260506164047 | 18 | 122 | 8.0 | 22.5 | 0.00 | 0.00 | 0.00 | 70 | 1008.1 |
| 20260506163548 | 19 | 329 | 3.2 | 20.9 | 0.00 | 0.00 | 0.00 | 70 | 1008.1 |
| 20260506163121 | 18 | 274 | 4.8 | 20.9 | 0.00 | 0.00 | 0.00 | 71 | 1008.1 |
| 20260506162548 | 18 | 120 | 1.6 | 9.7 | 0.00 | 0.00 | 0.00 | 71 | 1008.2 |
| 20260506162047 | 18 | 117 | 1.6 | 9.7 | 0.00 | 0.00 | 0.00 | 71 | 1008.4 |
| 20260506161557 | 18 | 11 | 1.6 | 9.7 | 0.00 | 0.00 | 0.00 | 72 | 1008.5 |
| 20260506161048 | 18 | 74 | 0.0 | 19.3 | 0.00 | 0.00 | 0.00 | 72 | 1008.7 |
| 20260506160547 | 18 | 137 | 1.6 | 19.3 | 0.00 | 0.00 | 0.00 | 72 | 1008.6 |
| 20260506160108 | 18 | 112 | 1.6 | 11.3 | 0.00 | 0.00 | 0.00 | 71 | 1008.6 |
| 20260506155548 | 18 | 0 | 3.2 | 16.1 | 0.00 | 0.00 | 0.00 | 71 | 1008.6 |
| 20260506155048 | 18 | 238 | 3.2 | 16.1 | 0.00 | 0.00 | 0.00 | 71 | 1008.7 |
| 20260506154554 | 19 | 100 | 1.6 | 9.7 | 0.00 | 0.00 | 0.00 | 71 | 1008.8 |
| 20260506154053 | 19 | 102 | 0.0 | 8.0 | 0.00 | 0.00 | 0.00 | 71 | 1008.8 |
| 20260506153544 | 19 | 144 | 0.0 | 11.3 | 0.00 | 0.00 | 0.00 | 73 | 1008.8 |
| 20260506153116 | 19 | 155 | 3.2 | 11.3 | 0.00 | 0.00 | 0.00 | 70 | 1008.8 |
| 20260506152550 | 19 | 141 | 1.6 | 12.9 | 0.00 | 0.00 | 0.00 | 71 | 1008.9 |
| 20260506152048 | 19 | 123 | 3.2 | 12.9 | 0.00 | 0.00 | 0.00 | 71 | 1008.9 |
| 20260506151552 | 18 | 120 | 1.6 | 9.7 | 0.00 | 0.00 | 0.00 | 72 | 1009.0 |
| 20260506151047 | 18 | 106 | 3.2 | 16.1 | 0.00 | 0.00 | 0.00 | 71 | 1009.1 |
| 20260506150547 | 18 | 70 | 3.2 | 16.1 | 0.00 | 0.00 | 0.00 | 72 | 1009.2 |
| 20260506150056 | 18 | 0 | 3.2 | 16.1 | 0.00 | 0.00 | 0.00 | 72 | 1009.2 |
| 20260506145551 | 19 | 336 | 3.2 | 12.9 | 0.00 | 0.00 | 0.00 | 72 | 1009.1 |
| 20260506145048 | 19 | 156 | 4.8 | 12.9 | 0.00 | 0.00 | 0.00 | 71 | 1009.4 |
| 20260506144557 | 19 | 304 | 1.6 | 11.3 | 0.00 | 0.00 | 0.00 | 72 | 1009.0 |
| 20260506144048 | 19 | 127 | 4.8 | 12.9 | 0.00 | 0.00 | 0.00 | 72 | 1008.9 |
| 20260506143548 | 19 | 104 | 3.2 | 12.9 | 0.00 | 0.00 | 0.00 | 72 | 1009.1 |
| 20260506143051 | 18 | 108 | 4.8 | 11.3 | 0.00 | 0.00 | 0.00 | 73 | 1009.3 |
| 20260506142549 | 18 | 117 | 3.2 | 9.7 | 0.00 | 0.00 | 0.00 | 72 | 1009.5 |
| 20260506142048 | 18 | 35 | 3.2 | 9.7 | 0.00 | 0.00 | 0.00 | 73 | 1009.2 |
| 20260506141553 | 18 | 0 | 0.0 | 9.7 | 0.00 | 0.00 | 0.00 | 74 | 1009.0 |
| 20260506141048 | 18 | 0 | 3.2 | 11.3 | 0.00 | 0.00 | 0.00 | 74 | 1009.1 |
| 20260506140551 | 18 | 0 | 4.8 | 11.3 | 0.00 | 0.00 | 0.00 | 74 | 1009.1 |
| 20260506140052 | 18 | 134 | 4.8 | 11.3 | 0.00 | 0.00 | 0.00 | 75 | 1009.1 |
| 20260506135547 | 18 | 312 | 1.6 | 14.5 | 0.00 | 0.00 | 0.00 | 75 | 1009.0 |
| 20260506135047 | 18 | 111 | 3.2 | 16.1 | 0.00 | 0.00 | 0.00 | 76 | 1008.9 |
| 20260506134555 | 17 | 161 | 4.8 | 16.1 | 0.00 | 0.00 | 0.00 | 76 | 1008.8 |
| 20260506134047 | 17 | 101 | 6.4 | 16.1 | 0.00 | 0.00 | 0.00 | 77 | 1009.0 |
| 20260506133547 | 17 | 98 | 0.0 | 17.7 | 0.00 | 0.00 | 0.00 | 77 | 1009.1 |
| 20260506133052 | 17 | 43 | 4.8 | 17.7 | 0.00 | 0.00 | 0.00 | 78 | 1009.0 |
| 20260506132550 | 17 | 0 | 0.0 | 11.3 | 0.00 | 0.00 | 0.00 | 79 | 1009.2 |
| 20260506132049 | 17 | 266 | 1.6 | 11.3 | 0.00 | 0.00 | 0.00 | 78 | 1009.3 |
| 20260506131607 | 17 | 348 | 1.6 | 17.7 | 0.00 | 0.00 | 0.00 | 78 | 1009.3 |
| 20260506131048 | 17 | 44 | 1.6 | 17.7 | 0.00 | 0.00 | 0.00 | 79 | 1009.4 |
| 20260506130550 | 17 | 341 | 6.4 | 17.7 | 0.00 | 0.00 | 0.00 | 79 | 1009.5 |
| 20260506130055 | 17 | 121 | 3.2 | 14.5 | 0.00 | 0.00 | 0.00 | 79 | 1009.5 |
| 20260506125549 | 17 | 82 | 3.2 | 14.5 | 0.00 | 0.00 | 0.00 | 80 | 1009.5 |
| 20260506125048 | 17 | 110 | 4.8 | 14.5 | 0.00 | 0.00 | 0.00 | 79 | 1009.7 |
| 20260506124550 | 17 | 107 | 3.2 | 11.3 | 0.00 | 0.00 | 0.00 | 79 | 1009.6 |
| 20260506124049 | 17 | 124 | 1.6 | 11.3 | 0.00 | 0.00 | 0.00 | 79 | 1009.5 |
| 20260506123548 | 17 | 0 | 3.2 | 11.3 | 0.00 | 0.00 | 0.00 | 79 | 1009.4 |
| 20260506123109 | 17 | 125 | 3.2 | 11.3 | 0.00 | 0.00 | 0.00 | 79 | 1009.4 |
| 20260506122549 | 17 | 73 | 3.2 | 20.9 | 0.00 | 0.00 | 0.00 | 80 | 1009.6 |
| 20260506122048 | 17 | 0 | 4.8 | 20.9 | 0.00 | 0.00 | 0.00 | 80 | 1009.4 |
| 20260506121605 | 16 | 225 | 3.2 | 17.7 | 0.00 | 0.00 | 0.00 | 80 | 1009.4 |
| 20260506121047 | 16 | 302 | 3.2 | 14.5 | 0.00 | 0.00 | 0.00 | 80 | 1009.3 |
| 20260506120547 | 16 | 89 | 3.2 | 14.5 | 0.00 | 0.00 | 0.00 | 81 | 1009.4 |
| 20260506120051 | 16 | 122 | 1.6 | 14.5 | 0.00 | 0.00 | 0.00 | 82 | 1009.6 |
| 20260506115549 | 16 | 162 | 3.2 | 14.5 | 0.00 | 0.00 | 0.00 | 82 | 1009.6 |
| 20260506115049 | 16 | 210 | 3.2 | 24.1 | 0.00 | 0.00 | 0.00 | 81 | 1009.7 |
| 20260506114552 | 16 | 92 | 3.2 | 24.1 | 0.00 | 0.00 | 0.00 | 81 | 1009.6 |
| 20260506114048 | 16 | 347 | 0.0 | 9.7 | 0.00 | 0.00 | 0.00 | 82 | 1009.5 |
| 20260506113548 | 16 | 160 | 1.6 | 11.3 | 0.00 | 0.00 | 0.00 | 84 | 1009.5 |
| 20260506113053 | 15 | 148 | 3.2 | 11.3 | 0.00 | 0.00 | 0.00 | 83 | 1009.7 |
| 20260506112547 | 15 | 115 | 3.2 | 16.1 | 0.00 | 0.00 | 0.00 | 83 | 1009.8 |
| 20260506112048 | 15 | 129 | 1.6 | 16.1 | 0.00 | 0.00 | 0.00 | 83 | 1010.0 |
| 20260506111552 | 15 | 183 | 3.2 | 16.1 | 0.00 | 0.00 | 0.00 | 83 | 1010.0 |
| 20260506111050 | 15 | 4 | 1.6 | 9.7 | 0.00 | 0.00 | 0.00 | 83 | 1009.8 |
| 20260506110548 | 15 | 4 | 3.2 | 9.7 | 0.00 | 0.00 | 0.00 | 84 | 1009.8 |
| 20260506110101 | 15 | 165 | 3.2 | 19.3 | 0.00 | 0.00 | 0.00 | 84 | 1009.8 |
| 20260506105549 | 15 | 23 | 0.0 | 19.3 | 0.00 | 0.00 | 0.00 | 84 | 1009.9 |
| 20260506105049 | 15 | 111 | 6.4 | 19.3 | 0.00 | 0.00 | 0.00 | 84 | 1009.8 |
| 20260506104552 | 14 | 0 | 3.2 | 11.3 | 0.00 | 0.00 | 0.00 | 84 | 1009.6 |
| 20260506104044 | 14 | 267 | 4.8 | 9.7 | 0.00 | 0.00 | 0.00 | 85 | 1009.6 |
| 20260506103641 | 14 | 86 | 1.6 | 9.7 | 0.00 | 0.00 | 0.00 | 85 | 1009.6 |
| 20260506103051 | 14 | 302 | 0.0 | 9.7 | 0.00 | 0.00 | 0.00 | 85 | 1009.7 |
| 20260506102549 | 13 | 119 | 1.6 | 9.7 | 0.00 | 0.00 | 0.00 | 85 | 1009.7 |
| 20260506102049 | 13 | 241 | 1.6 | 12.9 | 0.00 | 0.00 | 0.00 | 85 | 1009.7 |
| 20260506101613 | 13 | 0 | 1.6 | 12.9 | 0.00 | 0.00 | 0.00 | 86 | 1009.7 |
| 20260506101048 | 13 | 94 | 1.6 | 9.7 | 0.00 | 0.00 | 0.00 | 86 | 1009.7 |
| 20260506100548 | 13 | 154 | 0.0 | 8.0 | 0.00 | 0.00 | 0.00 | 85 | 1009.8 |
| 20260506100058 | 13 | 0 | 0.0 | 8.0 | 0.00 | 0.00 | 0.00 | 85 | 1009.7 |
| 20260506095548 | 13 | 0 | 1.6 | 8.0 | 0.00 | 0.00 | 0.00 | 85 | 1009.7 |
| 20260506095044 | 13 | 138 | 0.0 | 6.4 | 0.00 | 0.00 | 0.00 | 85 | 1009.8 |
| 20260506094556 | 13 | 353 | 0.0 | 6.4 | 0.00 | 0.00 | 0.00 | 85 | 1009.6 |
| 20260506094046 | 13 | 146 | 0.0 | 14.5 | 0.00 | 0.00 | 0.00 | 85 | 1009.7 |
| 20260506093549 | 13 | 0 | 0.0 | 14.5 | 0.00 | 0.00 | 0.00 | 85 | 1009.7 |
| 20260506093057 | 13 | 159 | 3.2 | 14.5 | 0.00 | 0.00 | 0.00 | 85 | 1009.7 |
| 20260506092548 | 13 | 0 | 0.0 | 8.0 | 0.00 | 0.00 | 0.00 | 84 | 1009.7 |
| 20260506092047 | 13 | 0 | 1.6 | 8.0 | 0.00 | 0.00 | 0.00 | 84 | 1009.5 |
| 20260506091549 | 13 | 228 | 0.0 | 9.7 | 0.00 | 0.00 | 0.00 | 84 | 1009.5 |
| 20260506091051 | 13 | 182 | 0.0 | 9.7 | 0.00 | 0.00 | 0.00 | 84 | 1009.5 |
| 20260506090548 | 13 | 0 | 1.6 | 9.7 | 0.00 | 0.00 | 0.00 | 84 | 1009.6 |
| 20260506085548 | 13 | 0 | 0.0 | 11.3 | 0.00 | 0.00 | 0.00 | 84 | 1009.6 |
| 20260506085049 | 13 | 109 | 1.6 | 11.3 | 0.00 | 0.00 | 0.00 | 84 | 1009.6 |
| 20260506084611 | 13 | 112 | 3.2 | 11.3 | 0.00 | 0.00 | 0.00 | 84 | 1009.7 |
| 20260506084048 | 13 | 112 | 0.0 | 9.7 | 0.00 | 0.00 | 0.00 | 84 | 1009.7 |
| 20260506083548 | 13 | 0 | 0.0 | 9.7 | 0.00 | 0.00 | 0.00 | 84 | 1009.6 |
| 20260506083055 | 13 | 0 | 3.2 | 9.7 | 0.00 | 0.00 | 0.00 | 85 | 1009.7 |
| 20260506082547 | 13 | 134 | 0.0 | 1.6 | 0.00 | 0.00 | 0.00 | 85 | 1009.6 |
| 20260506082047 | 13 | 76 | 0.0 | 3.2 | 0.00 | 0.00 | 0.00 | 84 | 1009.6 |
| 20260506081552 | 13 | 155 | 0.0 | 3.2 | 0.00 | 0.00 | 0.00 | 85 | 1009.8 |
| 20260506081047 | 13 | 0 | 0.0 | 3.2 | 0.00 | 0.00 | 0.00 | 85 | 1009.8 |
| 20260506080548 | 13 | 0 | 0.0 | 3.2 | 0.00 | 0.00 | 0.00 | 85 | 1009.7 |
| 20260506073054 | 13 | 0 | 0.0 | 1.6 | 0.00 | 0.00 | 0.00 | 81 | 1009.7 |
| 20260506072544 | 13 | 0 | 0.0 | 1.6 | 0.00 | 0.00 | 0.00 | 80 | 1009.8 |
| 20260506072047 | 13 | 0 | 0.0 | 1.6 | 0.00 | 0.00 | 0.00 | 80 | 1009.7 |
| 20260506072041 | 14 | 0 | 0.0 | 1.6 | 0.00 | 0.00 | 0.00 | 79 | 1009.7 |
| 20260506071047 | 14 | 0 | 0.0 | 3.2 | 0.00 | 0.00 | 0.00 | 78 | 1009.4 |
| 20260506070548 | 15 | 235 | 0.0 | 4.8 | 0.00 | 0.00 | 0.00 | 78 | 1009.6 |
| 20260506062047 | 15 | 200 | 0.0 | 4.8 | 0.00 | 0.00 | 0.00 | 75 | 1009.6 |
| 20260506061551 | 15 | 0 | 1.6 | 6.4 | 0.00 | 0.00 | 0.00 | 75 | 1009.7 |
| 20260506061047 | 15 | 0 | 0.0 | 6.4 | 0.00 | 0.00 | 0.00 | 74 | 1009.7 |
| 20260506060546 | 15 | 153 | 1.6 | 6.4 | 0.00 | 0.00 | 0.00 | 74 | 1009.5 |
| 20260506051047 | 15 | 0 | 0.0 | 4.8 | 0.00 | 0.00 | 0.00 | 72 | 1009.8 |
| 20260506050549 | 15 | 0 | 0.0 | 8.0 | 0.00 | 0.00 | 0.00 | 72 | 1009.8 |
| 20260506050112 | 15 | 0 | 0.0 | 8.0 | 0.00 | 0.00 | 0.00 | 72 | 1009.8 |
| 20260506045048 | 15 | 0 | 0.0 | 11.3 | 0.00 | 0.00 | 0.00 | 72 | 1009.9 |
| 20260506044551 | 15 | 117 | 1.6 | 11.3 | 0.00 | 0.00 | 0.00 | 72 | 1010.0 |
| 20260506044048 | 15 | 0 | 0.0 | 4.8 | 0.00 | 0.00 | 0.00 | 71 | 1010.0 |
| 20260506043547 | 15 | 0 | 0.0 | 9.7 | 0.00 | 0.00 | 0.00 | 71 | 1010.0 |
| 20260506043050 | 16 | 82 | 1.6 | 9.7 | 0.00 | 0.00 | 0.00 | 71 | 1009.9 |
| 20260506042547 | 16 | 90 | 0.0 | 6.4 | 0.00 | 0.00 | 0.00 | 71 | 1010.1 |
| 20260506042050 | 16 | 130 | 0.0 | 9.7 | 0.00 | 0.00 | 0.00 | 70 | 1010.1 |
| 20260506041601 | 16 | 72 | 1.6 | 9.7 | 0.00 | 0.00 | 0.00 | 70 | 1010.0 |
| 20260506041047 | 16 | 129 | 3.2 | 9.7 | 0.00 | 0.00 | 0.00 | 70 | 1010.1 |
| 20260506040549 | 16 | 145 | 0.0 | 14.5 | 0.00 | 0.00 | 0.00 | 69 | 1010.0 |
| 20260506040051 | 16 | 0 | 1.6 | 14.5 | 0.00 | 0.00 | 0.00 | 69 | 1010.2 |
| 20260506035547 | 16 | 4 | 3.2 | 14.5 | 0.00 | 0.00 | 0.00 | 68 | 1010.1 |
| 20260506035047 | 16 | 0 | 1.6 | 6.4 | 0.00 | 0.00 | 0.00 | 68 | 1010.1 |
| 20260506034554 | 16 | 115 | 1.6 | 12.9 | 0.00 | 0.00 | 0.00 | 68 | 1010.1 |
| 20260506034046 | 16 | 84 | 1.6 | 12.9 | 0.00 | 0.00 | 0.00 | 67 | 1010.1 |
| 20260506033547 | 16 | 120 | 6.4 | 12.9 | 0.00 | 0.00 | 0.00 | 67 | 1010.0 |
| 20260506033051 | 16 | 0 | 1.6 | 11.3 | 0.00 | 0.00 | 0.00 | 67 | 1010.0 |
| 20260506032547 | 16 | 238 | 0.0 | 14.5 | 0.00 | 0.00 | 0.00 | 66 | 1009.8 |
| 20260506032047 | 17 | 100 | 4.8 | 14.5 | 0.00 | 0.00 | 0.00 | 66 | 1010.1 |
| 20260506031551 | 17 | 153 | 3.2 | 12.9 | 0.00 | 0.00 | 0.00 | 66 | 1009.9 |